METAR stanice u blizini

 

LYBE - Beograd / Surčin, Srbija
Ažurirano: 24/04/2019 13:30
Vedro
Vedro
 Pravac vetra IJI
Vetar: IJI 28 km/h
Temperatura: 23°C
Tačka rose: 11°C
Vlažnost: 47%
Pritisak: 1018 hPa
Pregled: Vedro
Vidljivost: greater than 10 km
2019/04/24 11:30 LYBE 241130Z 12015KT CAVOK 23/11 Q1018 NOSIG
LYBT - Beograd / Batajnica, Srbija
Ažurirano: 24/04/2019 13:30
Vedro
Vedro
 Pravac vetra IJI
Vetar: IJI 20 km/h
Temperatura: 23°C
Tačka rose: 10°C
Vlažnost: 44%
Pritisak: 1018 hPa
Pregled: Vedro
Vidljivost: greater than 10 km
2019/04/24 11:30 LYBT 241130Z 11011KT 070V170 CAVOK 23/10 Q1018 NOSIG
LYVR - Vršac, Srbija
Ažurirano: 24/04/2019 13:30
Vedro
Vedro
 Pravac vetra JJI
Vetar: JJI 43 km/h, Maks.: 67 km/h
Temperatura: 21°C
Tačka rose: 7°C
Vlažnost: 40%
Pritisak: 1019 hPa
Pregled: Vedro
Vidljivost: greater than 10 km
2019/04/24 11:30 LYVR 241130Z 15023G36KT CAVOK 21/07 Q1019 NOSIG
 
LYKV - Lađevci, Srbija
Ažurirano: 24/04/2019 13:30
Few Clouds
Few Clouds
 Pravac vetra IJI
Vetar: IJI 19 km/h
Temperatura: 23°C
Tačka rose: 10°C
Vlažnost: 44%
Pritisak: 1018 hPa
Oblaci: Few Clouds
Vidljivost: 10 km
Cloud details: Few Clouds 1311 m
2019/04/24 11:30 LYKV 241130Z 12010KT 090V150 9999 FEW043 23/10 Q1018 NOSIG
LYNI - Niš, Srbija
Ažurirano: 24/04/2019 13:30
Vedro
Vedro
 Pravac vetra calm
Vetar: Tišina
Temperatura: 23°C
Tačka rose: 8°C
Vlažnost: 38%
Pritisak: 1020 hPa
Pregled: Vedro
Vidljivost: greater than 10 km
2019/04/24 11:30 LYNI 241130Z 00000KT CAVOK 23/08 Q1020 NOSIG
BKPR - Priština, Srbija
Ažurirano: 24/04/2019 14:00
Vedro
Vedro
 Pravac vetra JI
Vetar: JI 19 km/h
Temperatura: 21°C
Tačka rose: 5°C
Vlažnost: 35%
Pritisak: 1021 hPa
Pregled: Vedro
Vidljivost: greater than 10 km
2019/04/24 12:00 BKPR 241200Z 14010KT 100V170 CAVOK 21/05 Q1021 NOSIG
 
LHPP - Pecs / Pogany, Hungary
Ažurirano: 24/04/2019 13:15
Vedro
Vedro
 Pravac vetra J
Vetar: J 15 km/h
Temperatura: 23°C
Tačka rose: 10°C
Vlažnost: 44%
Pritisak: 1016 hPa
Pregled: Vedro
Vidljivost: greater than 10 km
2019/04/24 11:15 LHPP 241115Z 18008KT CAVOK 23/10 Q1016
LHUD - Szeged, Hungary
Ažurirano: 24/04/2019 01:45
NOT Current
Vedro
Vedro
 Pravac vetra JI
Vetar: JI 22 km/h
Temperatura: 11°C
Tačka rose: 6°C
Vlažnost: 72%
Pritisak: 1016 hPa
Pregled: Vedro
Vidljivost: greater than 10 km
2019/04/23 23:45 LHUD 232345Z 14012KT CAVOK 11/06 Q1016 RERA
LRTR - Timisoara, Romania
Ažurirano: 24/04/2019 13:30
Vedro
Vedro
 Pravac vetra J
Vetar: J 26 km/h
Temperatura: 22°C
Tačka rose: 9°C
Vlažnost: 44%
Pritisak: 1019 hPa
Pregled: Vedro
Vidljivost: greater than 10 km
2019/04/24 11:30 LRTR 241130Z 18014KT CAVOK 22/09 Q1019 NOSIG
 
LRCV - Craiova, Romania
Ažurirano: 24/04/2019 13:30
Vedro
Vedro
 Pravac vetra I
Vetar: I 17 km/h
Temperatura: 18°C
Tačka rose: 6°C
Vlažnost: 46%
Pritisak: 1024 hPa
Pregled: Vedro
Vidljivost: greater than 10 km
2019/04/24 11:30 LRCV 241130Z 09009KT 060V130 CAVOK 18/06 Q1024
LBSF - Sofia, Bulgaria
Ažurirano: 24/04/2019 13:30
Vedro
Vedro
 Pravac vetra I
Vetar: I 17 km/h
Temperatura: 21°C
Tačka rose: 8°C
Vlažnost: 43%
Pritisak: 1022 hPa
Pregled: Vedro
Vidljivost: greater than 10 km
2019/04/24 11:30 LBSF 241130Z 10009KT 070V130 CAVOK 21/08 Q1022 NOSIG
LWSK - Skoplje, Makedonija
Ažurirano: 24/04/2019 13:30
Vedro
Vedro
 Pravac vetra JJI
Vetar: JJI 15 km/h
Temperatura: 22°C
Tačka rose: 7°C
Vlažnost: 38%
Pritisak: 1022 hPa
Pregled: Vedro
Vidljivost: greater than 10 km
2019/04/24 11:30 LWSK 241130Z 15008KT 110V190 CAVOK 22/07 Q1022 NOSIG
 
LYPG - Podgorica, Crna Gora
Ažurirano: 24/04/2019 13:30
Vedro
Vedro
 Pravac vetra varies
Vetar: varies 4 km/h
Temperatura: 24°C
Tačka rose: 11°C
Vlažnost: 44%
Pritisak: 1019 hPa
Pregled: Vedro
Vidljivost: greater than 10 km
2019/04/24 11:30 LYPG 241130Z VRB02KT CAVOK 24/11 Q1019 NOSIG
LQSA - Sarajevo, Bosna i Hercegovina
Ažurirano: 24/04/2019 13:30
Partly Cloudy
Partly Cloudy
 Pravac vetra JJI
Vetar: JJI 22 km/h
Temperatura: 22°C
Tačka rose: 9°C
Vlažnost: 44%
Pritisak: 1017 hPa
Oblaci: Partly Cloudy
Vidljivost: 10 km
Cloud details: Few Clouds 1524 m
Partly Cloudy 2134 m
2019/04/24 11:30 LQSA 241130Z 15012KT 120V180 9999 FEW050 SCT070 22/09 Q1017 NOSIG
LDOS - Osijek, Hrvatksa
Ažurirano: 24/04/2019 13:30
Few Clouds
Few Clouds
 Pravac vetra J
Vetar: J 19 km/h
Temperatura: 26°C
Tačka rose: 12°C
Vlažnost: 42%
Pritisak: 1016 hPa
Oblaci: Few Clouds
Vidljivost: 10 km
Cloud details: Few Clouds 1006 m
2019/04/24 11:30 LDOS 241130Z 19010KT 140V220 9999 FEW033 26/12 Q1016